Nhamunda, Brazil
Current Conditions -  °F | °C
As of 6:00 PM on Thursday 23 Oct 2014 (Local Time) from SBIC Reporting Station
Few Clouds Few Clouds  
Wind Chill: 79°   Ceiling: Unl
Heat Index: 83°   Visibility: 6mi
Dew Point: 77°   Wind: 0mph
Humidity: 94%   Direction: NA
Pressure: 29.77"   Gusts: NA
Location:  2.27°S, 56.73°W
Report Text: SBIC 232200Z 00000KT 9999 FEW020 26/25 Q1008
Loading
Personal Weather Stations






























Interactive Weather Map
Tropical Storm Tracking
New forecast layout! Learn more

10-Day Weather Forecast

Advertisements
Track Severe Weather on mobile